Time;durP1;ratioP1;P1;durP2;ratioP2;P2;SDS_P1;SDS_P2;PMS_P1;PMS_P2;Temp;Humidity;BMP_temperature;BMP_pressure;BME280_temperature;BME280_humidity;BME280_pressure;Samples;Min_cycle;Max_cycle;Signal;HPM_P1;HPM_P2
2022/07/11 00:01:43;;;;;;;6.60;5.30;;;;;;;18.99;69.10;99841.94;5070169;28;20028;-29
2022/07/11 00:04:09;;;;;;;7.50;5.15;;;;;;;18.84;69.22;99829.34;5088812;28;20020;-28
2022/07/11 00:06:34;;;;;;;9.55;5.47;;;;;;;18.75;71.12;99837.16;5088278;28;20036;-28
2022/07/11 00:09:00;;;;;;;10.43;6.05;;;;;;;18.76;71.43;99843.41;5070443;28;20024;-28
2022/07/11 00:11:25;;;;;;;10.00;6.28;;;;;;;18.79;71.14;99835.56;5069897;28;20415;-29
2022/07/11 00:13:51;;;;;;;15.57;8.68;;;;;;;18.63;71.38;99828.59;5088730;28;20031;-32
2022/07/11 00:16:16;;;;;;;22.02;11.73;;;;;;;18.74;71.97;99826.66;5088356;28;20031;-27
2022/07/11 00:18:42;;;;;;;17.42;9.88;;;;;;;18.61;72.00;99809.16;5088411;28;20028;-30
2022/07/11 00:21:07;;;;;;;13.35;7.65;;;;;;;18.75;72.26;99836.38;5088427;28;20059;-31
2022/07/11 00:23:33;;;;;;;10.63;7.03;;;;;;;18.59;73.01;99828.34;5088470;28;20028;-28
2022/07/11 00:25:59;;;;;;;8.18;6.05;;;;;;;18.45;74.16;99827.34;5070327;28;20172;-31
2022/07/11 00:28:24;;;;;;;10.15;6.70;;;;;;;18.32;75.36;99815.22;5088365;28;20408;-28
2022/07/11 00:30:51;;;;;;;8.90;6.88;;;;;;;18.31;74.51;99810.09;5087968;28;20458;-31
2022/07/11 00:33:16;;;;;;;11.43;8.32;;;;;;;18.38;73.39;99816.81;5069769;28;20024;-28
2022/07/11 00:35:41;;;;;;;10.20;7.50;;;;;;;18.47;72.05;99825.19;5087425;28;20028;-29
2022/07/11 00:38:07;;;;;;;11.52;6.97;;;;;;;18.40;73.43;99819.25;5088491;28;20030;-29
2022/07/11 00:40:33;;;;;;;11.50;7.57;;;;;;;18.32;72.55;99812.53;5087933;28;20078;-28
2022/07/11 00:42:58;;;;;;;11.90;8.73;;;;;;;18.33;72.82;99805.22;5069450;28;20043;-30
2022/07/11 00:45:24;;;;;;;12.63;9.90;;;;;;;18.50;72.91;99813.81;5087332;28;20435;-30
2022/07/11 00:47:49;;;;;;;10.80;7.32;;;;;;;18.48;69.86;99811.38;5069315;28;20028;-30
2022/07/11 00:50:15;;;;;;;8.10;6.03;;;;;;;18.37;70.47;99817.09;5069112;28;20069;-33
2022/07/11 00:52:41;;;;;;;9.77;7.50;;;;;;;18.14;72.53;99818.53;5087483;28;20055;-28
2022/07/11 00:55:09;;;;;;;8.88;5.43;;;;;;;18.12;72.98;99818.00;5069424;28;20064;-33
2022/07/11 00:57:36;;;;;;;6.70;5.75;;;;;;;18.09;74.02;99832.06;5069028;28;20046;-28
2022/07/11 01:00:02;;;;;;;9.43;5.80;;;;;;;17.90;73.36;99824.56;5069135;28;20028;-29
2022/07/11 01:02:28;;;;;;;10.25;5.22;;;;;;;18.07;70.76;99821.53;5068965;28;20487;-28
2022/07/11 01:04:53;;;;;;;7.85;5.70;;;;;;;17.89;71.13;99817.53;5087371;28;20088;-29
2022/07/11 01:07:19;;;;;;;8.77;4.75;;;;;;;17.62;71.50;99799.75;5068953;28;20032;-32
2022/07/11 01:09:44;;;;;;;9.68;6.07;;;;;;;17.77;71.59;99825.88;5087743;28;20407;-29
2022/07/11 01:12:10;;;;;;;7.88;4.80;;;;;;;17.61;72.14;99819.72;5069140;28;20024;-30
2022/07/11 01:14:35;;;;;;;12.93;7.57;;;;;;;17.37;72.81;99813.25;5087501;28;20035;-28
2022/07/11 01:17:01;;;;;;;20.13;11.35;;;;;;;17.34;73.10;99819.97;5087167;28;20081;-30
2022/07/11 01:19:26;;;;;;;30.50;16.35;;;;;;;17.47;72.81;99824.03;5087199;28;20028;-28
2022/07/11 01:21:56;;;;;;;128.90;64.70;;;;;;;17.54;72.67;99832.66;5087299;28;20172;-28
2022/07/11 01:24:22;;;;;;;134.45;64.63;;;;;;;17.45;72.43;99832.41;5068819;28;20093;-29
2022/07/11 01:26:48;;;;;;;123.90;60.15;;;;;;;17.27;72.66;99817.56;5087255;28;20032;-28
2022/07/11 01:29:14;;;;;;;116.20;54.20;;;;;;;17.30;73.20;99835.06;5068789;28;20035;-28
2022/07/11 01:31:41;;;;;;;118.22;50.72;;;;;;;17.41;71.53;99812.44;5068345;28;20024;-29
2022/07/11 01:34:07;;;;;;;47.70;23.37;;;;;;;17.40;71.73;99837.78;5068854;28;20031;-33
2022/07/11 01:36:33;;;;;;;12.32;8.00;;;;;;;17.49;71.17;99843.44;5086961;28;20637;-30
2022/07/11 01:38:58;;;;;;;7.72;5.40;;;;;;;17.44;71.21;99840.75;5086971;28;20066;-28
2022/07/11 01:41:24;;;;;;;8.02;5.40;;;;;;;17.33;72.02;99839.13;5086605;28;20647;-29
2022/07/11 01:43:50;;;;;;;7.55;5.00;;;;;;;17.13;71.87;99824.56;5068621;28;20063;-29
2022/07/11 01:46:16;;;;;;;7.60;5.18;;;;;;;17.20;72.19;99838.59;5086842;28;20039;-32
2022/07/11 01:48:42;;;;;;;7.88;5.25;;;;;;;17.12;72.58;99847.22;5070683;28;20089;-28
2022/07/11 01:51:08;;;;;;;7.63;5.00;;;;;;;16.96;73.10;99848.22;5091023;28;20035;-30
2022/07/11 01:53:33;;;;;;;6.60;4.68;;;;;;;16.92;73.42;99855.22;5091303;28;20028;-28
2022/07/11 01:55:59;;;;;;;8.15;4.85;;;;;;;16.64;74.19;99835.75;5091036;28;20028;-29
2022/07/11 01:58:24;;;;;;;6.00;4.47;;;;;;;16.59;74.35;99828.47;5091026;28;20027;-27
2022/07/11 02:00:49;;;;;;;6.75;4.90;;;;;;;16.81;74.44;99846.31;5072549;28;20042;-30
2022/07/11 02:03:16;;;;;;;6.93;4.97;;;;;;;16.67;75.11;99846.81;5090749;28;20025;-29
2022/07/11 02:05:42;;;;;;;7.68;4.97;;;;;;;16.51;75.34;99833.53;5072537;28;20036;-28
2022/07/11 02:08:14;;;;;;;6.10;4.88;;;;;;;16.57;75.64;99848.63;5072378;28;20178;-28
2022/07/11 02:10:42;;;;;;;6.68;4.90;;;;;;;16.72;75.03;99856.78;5072202;28;20052;-28
2022/07/11 02:13:09;;;;;;;7.30;5.32;;;;;;;16.60;74.78;99840.03;5090461;28;20416;-27
2022/07/11 02:15:35;;;;;;;6.57;4.72;;;;;;;16.55;74.92;99835.47;5071903;28;20507;-29
2022/07/11 02:18:01;;;;;;;8.10;4.88;;;;;;;16.82;74.16;99853.34;5072438;28;20873;-29
2022/07/11 02:20:27;;;;;;;7.80;5.30;;;;;;;16.93;73.59;99829.91;5090784;28;20048;-28
2022/07/11 02:22:53;;;;;;;6.68;4.90;;;;;;;17.15;73.32;99837.78;5072214;28;20024;-28
2022/07/11 02:25:19;;;;;;;5.22;4.60;;;;;;;17.16;73.19;99840.22;5072110;28;20077;-38
2022/07/11 02:27:45;;;;;;;6.22;4.72;;;;;;;17.14;73.14;99836.97;5072274;28;20244;-29
2022/07/11 02:30:11;;;;;;;5.80;4.55;;;;;;;17.18;73.40;99837.22;5090195;28;20039;-30
2022/07/11 02:32:37;;;;;;;5.85;4.75;;;;;;;17.19;73.31;99845.03;5072206;28;20020;-31
2022/07/11 02:35:04;;;;;;;8.10;4.82;;;;;;;16.91;73.65;99843.66;5072205;28;20032;-31
2022/07/11 02:37:29;;;;;;;8.93;4.95;;;;;;;16.90;73.83;99842.03;5071986;28;20028;-28
2022/07/11 02:39:54;;;;;;;6.32;4.93;;;;;;;16.90;73.86;99844.75;5090531;28;20043;-32
2022/07/11 02:42:20;;;;;;;6.13;5.03;;;;;;;16.96;73.47;99848.22;5089634;28;20495;-31
2022/07/11 02:44:45;;;;;;;7.28;4.82;;;;;;;16.87;74.48;99858.72;5088750;28;20104;-27
2022/07/11 02:47:11;;;;;;;7.85;4.50;;;;;;;16.70;74.21;99858.13;5089313;28;20107;-29
2022/07/11 02:49:37;;;;;;;5.78;4.53;;;;;;;16.81;74.31;99860.59;5070645;28;20051;-31
2022/07/11 02:52:03;;;;;;;8.32;4.75;;;;;;;16.90;73.90;99868.97;5088729;28;20445;-29
2022/07/11 02:54:29;;;;;;;7.50;5.75;;;;;;;16.83;73.82;99857.63;5088776;28;20501;-29
2022/07/11 02:56:54;;;;;;;8.40;6.38;;;;;;;16.82;74.45;99864.91;5070343;28;20059;-32
2022/07/11 02:59:21;;;;;;;9.68;6.97;;;;;;;16.79;74.67;99865.41;5087959;28;20051;-28
2022/07/11 03:01:47;;;;;;;10.65;7.03;;;;;;;16.85;74.11;99856.28;5088641;28;20547;-34
2022/07/11 03:04:13;;;;;;;6.90;5.68;;;;;;;16.98;73.41;99873.00;5070526;28;20043;-29
2022/07/11 03:06:38;;;;;;;10.63;5.22;;;;;;;16.79;73.93;99873.47;5088654;28;20479;-28
2022/07/11 03:09:05;;;;;;;6.80;5.07;;;;;;;16.70;73.84;99864.31;5070325;28;20448;-28
2022/07/11 03:11:31;;;;;;;5.88;4.65;;;;;;;16.54;74.21;99870.72;5070028;28;20024;-37
2022/07/11 03:13:57;;;;;;;5.97;4.75;;;;;;;16.52;74.80;99884.41;5070106;28;20070;-32
2022/07/11 03:16:22;;;;;;;8.60;5.47;;;;;;;16.56;74.48;99869.38;5089078;28;20043;-31
2022/07/11 03:18:48;;;;;;;6.45;5.25;;;;;;;16.73;73.79;99884.50;5088471;28;20035;-30
2022/07/11 03:21:13;;;;;;;8.60;6.00;;;;;;;16.85;73.56;99898.56;5070004;28;20039;-29
2022/07/11 03:23:39;;;;;;;9.52;6.13;;;;;;;16.72;73.74;99875.63;5088328;28;20024;-31
2022/07/11 03:26:04;;;;;;;6.75;5.10;;;;;;;16.85;73.60;99894.00;5087978;28;20024;-27
2022/07/11 03:28:30;;;;;;;7.07;5.10;;;;;;;16.68;73.67;99885.31;5088280;28;20453;-32
2022/07/11 03:30:55;;;;;;;8.30;5.88;;;;;;;16.81;73.84;99887.50;5088319;28;20019;-28
2022/07/11 03:33:21;;;;;;;10.70;6.40;;;;;;;16.93;72.72;99898.06;5088263;28;20028;-28
2022/07/11 03:35:47;;;;;;;8.02;5.35;;;;;;;16.81;72.60;99889.41;5088280;28;20701;-30
2022/07/11 03:38:17;;;;;;;7.15;4.50;;;;;;;16.95;72.29;99900.50;5069728;28;20039;-28
2022/07/11 03:40:43;;;;;;;9.17;5.40;;;;;;;17.14;72.27;99903.50;5028001;28;1180495;-33
2022/07/11 03:43:09;;;;;;;8.40;5.80;;;;;;;17.09;72.18;99916.97;5070601;28;20518;-29
2022/07/11 03:45:34;;;;;;;6.43;5.25;;;;;;;17.17;72.52;99914.56;5088699;28;20085;-28
2022/07/11 03:48:00;;;;;;;8.30;5.95;;;;;;;17.13;72.58;99905.41;5088937;28;20032;-27
2022/07/11 03:50:26;;;;;;;6.53;5.50;;;;;;;17.20;72.43;99910.53;5088705;28;20114;-29
2022/07/11 03:52:52;;;;;;;7.28;6.03;;;;;;;17.54;72.01;99900.06;5088735;28;20051;-28
2022/07/11 03:55:18;;;;;;;16.10;6.95;;;;;;;17.52;71.52;99882.53;5088617;28;20768;-28
2022/07/11 03:57:43;;;;;;;8.10;6.05;;;;;;;17.53;71.54;99898.44;5070005;28;20044;-29
2022/07/11 04:00:09;;;;;;;8.55;6.80;;;;;;;17.55;72.16;99890.91;5070291;28;20074;-29
2022/07/11 04:02:35;;;;;;;7.35;6.13;;;;;;;17.68;73.06;99911.13;5070433;28;20028;-28
2022/07/11 04:05:01;;;;;;;6.22;5.20;;;;;;;17.70;72.15;99905.47;5088763;28;20457;-28
2022/07/11 04:07:29;;;;;;;7.32;4.93;;;;;;;17.79;72.63;99918.13;5070047;28;20043;-33
2022/07/11 04:09:56;;;;;;;7.93;6.18;;;;;;;17.96;71.48;99923.28;5069989;28;20389;-29
2022/07/11 04:12:22;;;;;;;6.13;4.88;;;;;;;17.93;70.66;99915.72;5069280;28;20024;-28
2022/07/11 04:14:48;;;;;;;6.32;5.05;;;;;;;18.18;70.39;99927.56;5088991;28;20035;-28
2022/07/11 04:17:13;;;;;;;5.97;4.43;;;;;;;18.11;70.91;99924.34;5070249;28;20565;-29
2022/07/11 04:19:39;;;;;;;7.60;5.20;;;;;;;18.18;71.13;99928.38;5088335;28;20089;-33
2022/07/11 04:22:05;;;;;;;7.57;5.13;;;;;;;18.10;72.30;99933.50;5088365;28;20032;-29
2022/07/11 04:24:31;;;;;;;8.02;5.30;;;;;;;18.36;71.51;99943.19;5069697;28;20483;-29
2022/07/11 04:26:56;;;;;;;9.68;5.50;;;;;;;18.37;71.44;99928.63;5069997;28;20411;-32
2022/07/11 04:29:23;;;;;;;7.45;4.97;;;;;;;18.35;71.78;99935.34;5087657;28;20022;-30
2022/07/11 04:31:50;;;;;;;7.53;5.18;;;;;;;18.43;72.51;99943.72;5088224;28;20168;-29
2022/07/11 04:34:16;;;;;;;6.32;4.63;;;;;;;18.63;71.19;99942.84;5069670;28;20031;-29
2022/07/11 04:36:42;;;;;;;5.53;4.55;;;;;;;18.82;70.48;99940.38;5069709;28;20488;-31
2022/07/11 04:39:08;;;;;;;6.78;4.60;;;;;;;19.12;67.74;99938.59;5087782;28;20055;-33
2022/07/11 04:41:33;;;;;;;7.00;4.55;;;;;;;19.10;67.27;99943.47;5068953;28;20113;-30
2022/07/11 04:43:59;;;;;;;5.82;4.15;;;;;;;19.22;67.70;99959.38;5087771;28;20469;-28
2022/07/11 04:46:24;;;;;;;7.15;4.63;;;;;;;19.21;68.64;99955.88;5087686;28;20028;-33
2022/07/11 04:48:50;;;;;;;9.15;4.03;;;;;;;19.31;68.45;99957.72;5087778;28;20685;-28
2022/07/11 04:51:17;;;;;;;5.30;3.95;;;;;;;19.47;68.20;99963.81;5087654;28;20051;-28
2022/07/11 04:53:42;;;;;;;6.13;4.00;;;;;;;19.63;66.65;99973.44;5087385;28;20073;-29
2022/07/11 04:56:08;;;;;;;6.07;3.63;;;;;;;19.69;65.58;99974.22;5087345;28;20056;-30
2022/07/11 04:58:33;;;;;;;6.00;3.17;;;;;;;19.72;65.13;99968.28;5087697;28;20118;-28
2022/07/11 05:01:00;;;;;;;3.83;2.53;;;;;;;19.68;62.34;99956.38;5087617;28;20036;-29
2022/07/11 05:03:26;;;;;;;5.65;2.80;;;;;;;19.67;61.84;99947.44;5087365;28;20027;-28
2022/07/11 05:05:51;;;;;;;6.10;3.25;;;;;;;19.89;63.25;99950.84;5087497;28;20462;-28
2022/07/11 05:08:17;;;;;;;6.63;2.70;;;;;;;19.92;63.13;99966.50;5087203;28;20051;-31
2022/07/11 05:10:43;;;;;;;3.40;2.75;;;;;;;20.00;61.74;99963.16;5087026;28;20067;-28
2022/07/11 05:13:08;;;;;;;5.88;2.63;;;;;;;20.03;61.41;99974.25;5087266;28;20089;-30
2022/07/11 05:15:34;;;;;;;4.40;2.40;;;;;;;19.96;61.43;99972.94;5087171;28;20040;-32
2022/07/11 05:17:59;;;;;;;4.90;2.92;;;;;;;20.12;61.30;99973.63;5087161;28;20105;-29
2022/07/11 05:20:25;;;;;;;3.88;2.58;;;;;;;20.09;61.79;99958.78;5068938;28;20035;-31
2022/07/11 05:22:53;;;;;;;2.85;2.20;;;;;;;20.23;59.54;99967.03;5087009;28;20460;-28
2022/07/11 05:25:18;;;;;;;5.50;3.08;;;;;;;20.03;60.52;99957.22;5086991;28;20024;-29
2022/07/11 05:27:44;;;;;;;4.75;2.10;;;;;;;20.09;59.42;99972.31;5087238;28;20024;-29
2022/07/11 05:30:10;;;;;;;5.43;2.50;;;;;;;20.08;60.27;99973.38;5087231;28;20091;-28
2022/07/11 05:32:35;;;;;;;4.90;3.08;;;;;;;20.20;60.70;99967.59;5087454;28;20027;-29
2022/07/11 05:35:02;;;;;;;8.13;3.20;;;;;;;20.26;59.01;99952.91;5086985;28;20299;-38
2022/07/11 05:37:28;;;;;;;5.45;2.83;;;;;;;20.35;60.14;99980.19;5086782;28;20034;-28
2022/07/11 05:39:54;;;;;;;3.97;2.53;;;;;;;20.40;59.16;99961.19;5068734;28;20032;-28
2022/07/11 05:42:19;;;;;;;5.20;2.63;;;;;;;20.54;59.06;99983.00;5068608;28;20059;-28
2022/07/11 05:44:45;;;;;;;8.48;3.42;;;;;;;20.58;58.92;99968.59;5086891;28;20039;-31
2022/07/11 05:47:10;;;;;;;4.95;2.17;;;;;;;20.63;59.62;99973.94;5087102;28;20032;-29
2022/07/11 05:49:36;;;;;;;9.35;3.78;;;;;;;21.03;58.88;99995.47;5086625;28;20132;-28
2022/07/11 05:52:04;;;;;;;5.35;2.30;;;;;;;21.06;58.32;99984.03;5086605;28;20031;-32
2022/07/11 05:54:29;;;;;;;3.55;1.95;;;;;;;21.04;56.90;99981.63;5086715;28;20020;-30
2022/07/11 05:56:55;;;;;;;7.70;2.80;;;;;;;21.12;58.82;99982.84;5068603;28;20480;-33
2022/07/11 05:59:21;;;;;;;4.78;1.95;;;;;;;21.33;56.94;99990.72;5086648;28;20050;-27
2022/07/11 06:01:47;;;;;;;5.53;2.20;;;;;;;21.21;56.98;99975.69;5068515;28;20032;-33
2022/07/11 06:04:12;;;;;;;6.82;2.05;;;;;;;21.24;56.82;99969.69;5086852;28;20022;-28
2022/07/11 06:06:38;;;;;;;6.15;2.35;;;;;;;21.35;55.73;99974.97;5086620;28;20024;-29
2022/07/11 06:09:04;;;;;;;5.85;2.60;;;;;;;21.61;55.99;99984.38;5068274;28;20035;-31
2022/07/11 06:11:29;;;;;;;3.33;2.05;;;;;;;21.79;54.12;99990.09;5086681;28;20028;-28
2022/07/11 06:13:55;;;;;;;6.82;2.40;;;;;;;21.81;55.42;99977.81;5068538;28;20144;-32
2022/07/11 06:16:20;;;;;;;4.97;2.35;;;;;;;21.77;53.90;99997.72;5086740;28;20028;-28
2022/07/11 06:18:46;;;;;;;4.03;2.50;;;;;;;21.72;53.35;99984.22;5086642;28;20032;-32
2022/07/11 06:21:12;;;;;;;6.72;2.20;;;;;;;21.95;52.32;99999.59;5086890;28;20598;-28
2022/07/11 06:23:38;;;;;;;6.30;2.38;;;;;;;21.99;52.87;99983.53;5068159;28;20051;-28
2022/07/11 06:26:04;;;;;;;4.78;2.00;;;;;;;21.98;51.47;99992.75;5086847;28;20024;-27
2022/07/11 06:28:29;;;;;;;4.85;2.42;;;;;;;22.00;52.93;99996.00;5068454;28;20088;-32
2022/07/11 06:30:55;;;;;;;3.80;1.80;;;;;;;22.15;50.28;100005.78;5086620;28;20063;-30
2022/07/11 06:33:21;;;;;;;7.05;3.40;;;;;;;22.21;51.14;100002.69;5086529;28;20549;-32
2022/07/11 06:35:47;;;;;;;8.93;3.83;;;;;;;22.17;50.52;100003.56;5089534;28;20524;-31
2022/07/11 06:38:14;;;;;;;6.38;2.65;;;;;;;22.48;51.67;100001.19;5071690;28;20526;-28
2022/07/11 06:40:41;;;;;;;10.50;2.88;;;;;;;22.71;49.78;99998.56;5089793;28;20031;-30
2022/07/11 06:43:10;;;;;;;3.90;2.17;;;;;;;22.66;48.23;100002.19;5072024;28;20156;-29
2022/07/11 06:45:36;;;;;;;5.80;1.98;;;;;;;22.75;48.73;100011.25;5071292;28;20122;-28
2022/07/11 06:48:02;;;;;;;6.00;2.20;;;;;;;22.82;48.54;100000.81;5071859;28;20128;-28
2022/07/11 06:50:28;;;;;;;5.80;2.13;;;;;;;22.83;48.88;100002.41;5071394;28;20119;-33
2022/07/11 06:52:53;;;;;;;4.40;2.10;;;;;;;22.96;47.61;100010.84;5071522;28;20020;-29
2022/07/11 06:55:19;;;;;;;7.35;2.35;;;;;;;22.80;47.47;100008.44;5089818;28;20381;-32
2022/07/11 06:57:44;;;;;;;3.05;2.35;;;;;;;23.12;45.43;100008.66;5089553;28;20024;-29
2022/07/11 07:00:11;;;;;;;4.95;1.90;;;;;;;23.22;47.40;100006.53;5089774;28;20028;-28
2022/07/11 07:02:38;;;;;;;3.55;1.65;;;;;;;23.38;45.37;99996.13;5071365;28;20476;-28
2022/07/11 07:05:04;;;;;;;2.47;1.63;;;;;;;23.24;45.90;99998.84;5089686;28;20028;-28
2022/07/11 07:07:31;;;;;;;5.60;2.10;;;;;;;23.21;46.14;99996.75;5071174;28;20024;-31
2022/07/11 07:09:56;;;;;;;4.57;2.10;;;;;;;23.47;44.99;100012.50;5089655;28;20032;-30
2022/07/11 07:12:22;;;;;;;6.80;2.03;;;;;;;23.54;43.75;99993.03;5089510;28;20024;-30
2022/07/11 07:14:49;;;;;;;2.78;1.58;;;;;;;23.58;44.00;99997.59;5071070;28;20024;-30
2022/07/11 07:17:14;;;;;;;5.88;2.38;;;;;;;23.83;45.07;100006.28;5070895;28;20068;-30
2022/07/11 07:19:40;;;;;;;5.57;1.90;;;;;;;23.80;44.47;100005.00;5088842;28;20024;-29
2022/07/11 07:22:05;;;;;;;5.60;2.20;;;;;;;24.00;44.36;100002.88;5089437;28;20088;-28
2022/07/11 07:24:35;;;;;;;3.92;1.80;;;;;;;24.18;42.24;100004.59;5089342;28;20407;-30
2022/07/11 07:27:04;;;;;;;5.00;2.30;;;;;;;23.98;42.77;99997.72;5089112;28;20020;-29
2022/07/11 07:29:30;;;;;;;5.75;2.33;;;;;;;23.87;41.61;99985.50;5088576;28;20032;-29
2022/07/11 07:31:56;;;;;;;2.60;1.30;;;;;;;24.05;40.86;100000.84;5088729;28;20093;-35
2022/07/11 07:34:21;;;;;;;5.68;2.45;;;;;;;24.46;41.82;99999.00;5088436;28;20027;-28
2022/07/11 07:36:47;;;;;;;8.15;2.13;;;;;;;24.35;39.66;100003.88;5088649;28;20110;-28
2022/07/11 07:39:13;;;;;;;7.55;3.25;;;;;;;24.28;40.57;100006.25;5088783;28;20032;-28
2022/07/11 07:41:38;;;;;;;9.75;3.97;;;;;;;24.41;39.41;99996.38;5088499;28;20138;-30
2022/07/11 07:44:04;;;;;;;3.17;1.88;;;;;;;24.49;39.59;99983.91;5088565;28;20055;-30
2022/07/11 07:46:29;;;;;;;2.35;1.40;;;;;;;24.41;39.83;100010.00;5068952;28;20028;-27
2022/07/11 07:48:55;;;;;;;3.47;1.83;;;;;;;24.58;39.03;100001.97;5088473;28;20026;-31
2022/07/11 07:51:23;;;;;;;16.10;6.30;;;;;;;24.62;39.28;100002.13;5088233;28;20063;-27
2022/07/11 07:53:49;;;;;;;11.00;3.58;;;;;;;24.69;38.37;100007.94;5088375;28;20396;-32
2022/07/11 07:56:14;;;;;;;7.03;3.45;;;;;;;24.56;37.87;100003.38;5088260;28;20537;-28
2022/07/11 07:58:40;;;;;;;3.20;1.25;;;;;;;24.74;37.85;99998.78;5088366;28;20907;-33
2022/07/11 08:03:51;;;;;;;1.88;1.15;;;;;;;25.02;37.09;100002.09;5088409;28;20092;-33
2022/07/11 08:06:17;;;;;;;5.03;2.65;;;;;;;25.05;37.88;100009.66;5069704;28;20028;-33
2022/07/11 08:08:42;;;;;;;4.75;2.03;;;;;;;25.09;37.74;100007.91;5088164;28;20036;-30
2022/07/11 08:11:08;;;;;;;7.70;3.72;;;;;;;25.19;37.50;99996.69;5088192;28;20047;-33
2022/07/11 08:13:33;;;;;;;6.35;2.40;;;;;;;25.61;36.95;100018.91;5087919;28;20035;-34
2022/07/11 08:16:00;;;;;;;2.67;1.10;;;;;;;25.30;35.57;99988.22;5087948;28;20028;-27
2022/07/11 08:18:26;;;;;;;8.77;3.67;;;;;;;25.57;36.34;100007.00;5088115;28;20502;-28
2022/07/11 08:20:55;;;;;;;12.75;5.47;;;;;;;25.45;36.81;100015.84;5088025;28;20028;-30
2022/07/11 08:23:21;;;;;;;6.13;1.95;;;;;;;25.22;36.99;99996.06;5069256;28;20117;-28
2022/07/11 08:25:46;;;;;;;5.63;2.40;;;;;;;25.44;37.49;99988.88;5069531;28;20028;-28
2022/07/11 08:28:12;;;;;;;8.07;2.60;;;;;;;25.74;35.48;100010.88;5087583;28;20020;-28
2022/07/11 08:30:37;;;;;;;2.15;1.30;;;;;;;25.72;35.78;100016.66;5087406;28;20557;-28
2022/07/11 08:33:03;;;;;;;3.40;1.58;;;;;;;25.59;35.18;99998.50;5087711;28;20123;-28
2022/07/11 08:35:29;;;;;;;3.72;1.52;;;;;;;25.62;35.52;100000.59;5087560;28;20054;-30
2022/07/11 08:37:54;;;;;;;5.10;1.75;;;;;;;25.78;35.31;100011.84;5069528;28;20077;-30
2022/07/11 08:40:20;;;;;;;3.97;1.70;;;;;;;25.87;34.55;100009.91;5069289;28;20035;-37
2022/07/11 08:42:45;;;;;;;4.00;1.90;;;;;;;25.94;35.58;100007.50;5087298;28;20047;-30
2022/07/11 08:45:12;;;;;;;4.60;1.90;;;;;;;25.87;34.27;100012.63;5087077;28;20085;-29
2022/07/11 08:47:39;;;;;;;2.67;1.25;;;;;;;26.08;34.96;100009.28;5087240;28;20024;-29
2022/07/11 08:50:05;;;;;;;4.13;1.85;;;;;;;26.23;34.07;100006.00;5069174;28;20079;-30
2022/07/11 08:52:32;;;;;;;4.72;1.90;;;;;;;26.01;33.62;99994.16;5068957;28;20039;-30
2022/07/11 08:54:58;;;;;;;1.63;1.30;;;;;;;26.18;33.69;100000.72;5068908;28;20078;-27
2022/07/11 08:57:24;;;;;;;3.75;1.30;;;;;;;26.28;33.42;100007.78;5086576;28;20484;-27
2022/07/11 08:59:55;;;;;;;8.48;1.92;;;;;;;26.58;34.07;100000.44;5086990;28;20032;-32
2022/07/11 09:02:21;;;;;;;4.80;2.00;;;;;;;26.57;33.98;99990.63;5069016;28;20036;-31
2022/07/11 09:04:46;;;;;;;2.92;1.33;;;;;;;26.68;34.14;100004.75;5068740;28;20040;-29
2022/07/11 09:07:12;;;;;;;4.85;1.40;;;;;;;26.46;33.63;100004.66;5068586;28;20415;-32
2022/07/11 09:09:38;;;;;;;4.25;1.58;;;;;;;26.57;33.80;99999.66;5068395;28;20024;-29
2022/07/11 09:12:11;;;;;;;5.65;1.60;;;;;;;26.54;33.81;99999.47;5068396;28;20198;-29
2022/07/11 09:14:36;;;;;;;2.13;1.40;;;;;;;26.82;33.69;100000.66;5068659;28;20040;-28
2022/07/11 09:17:04;;;;;;;4.70;1.25;;;;;;;27.03;33.33;99999.91;5087081;28;20035;-29
2022/07/11 09:19:32;;;;;;;1.80;1.10;;;;;;;26.99;32.45;99988.03;5068506;28;20536;-34
2022/07/11 09:27:56;;;;;;;1.95;1.20;;;;;;;26.90;31.77;99976.34;5086813;28;20485;-29
2022/07/11 09:30:39;;;;;;;4.15;1.52;;;;;;;27.17;32.62;99992.25;5086842;28;20483;-32
2022/07/11 09:33:09;;;;;;;2.95;1.65;;;;;;;27.28;32.47;99991.88;5086525;28;20391;-28
2022/07/11 09:35:41;;;;;;;1.38;1.10;;;;;;;27.59;31.08;99989.56;5086968;28;20043;-33
2022/07/11 09:38:11;;;;;;;1.85;1.23;;;;;;;27.71;32.63;99990.75;5086834;28;20422;-29
2022/07/11 09:40:37;;;;;;;2.47;1.30;;;;;;;27.43;31.77;99985.81;5068090;28;20047;-31
2022/07/11 09:43:04;;;;;;;7.95;3.05;;;;;;;27.36;31.16;99985.53;5087023;28;20526;-35
2022/07/11 09:45:32;;;;;;;9.20;2.88;;;;;;;27.54;31.98;99978.00;5067807;28;20070;-28
2022/07/11 09:47:58;;;;;;;;;;;;;;;27.48;30.56;99987.56;5068804;28;20095;-29
2022/07/11 09:50:26;;;;;;;3.65;1.27;;;;;;;27.34;30.31;99972.22;5086443;28;19974;-29
2022/07/11 09:53:16;;;;;;;5.22;2.42;;;;;;;28.12;31.11;99989.91;5068143;28;20028;-30
2022/07/11 09:55:46;;;;;;;10.85;4.20;;;;;;;27.46;29.85;99993.34;5067975;28;20032;-31
2022/07/11 09:58:16;;;;;;;11.18;5.47;;;;;;;27.95;30.82;99993.63;5068302;28;20504;-31
2022/07/11 10:00:44;;;;;;;11.85;4.63;;;;;;;28.02;30.45;99991.13;5086696;28;20031;-29
2022/07/11 10:03:10;;;;;;;;;;;;;;;28.29;29.05;100002.63;5068779;28;20043;-29
2022/07/11 10:05:36;;;;;;;1.92;1.00;;;;;;;27.93;29.17;99993.16;5086345;28;20814;-29
2022/07/11 10:08:03;;;;;;;3.80;1.83;;;;;;;28.36;29.03;99986.41;5086455;28;20032;-28
2022/07/11 10:10:30;;;;;;;8.57;3.00;;;;;;;28.25;28.47;99996.22;5071059;28;20032;-34
2022/07/11 10:12:56;;;;;;;10.60;4.50;;;;;;;27.97;27.30;99987.78;5072133;28;20067;-28
2022/07/11 10:15:32;;;;;;;9.75;2.35;;;;;;;28.47;28.05;100000.47;5071846;28;20434;-29
2022/07/11 10:18:00;;;;;;;7.65;2.00;;;;;;;28.29;25.51;99994.38;5090267;28;20058;-30
2022/07/11 10:20:35;;;;;;;4.88;1.92;;;;;;;28.42;24.85;99976.81;5071970;28;20032;-32
2022/07/11 10:23:23;;;;;;;3.25;1.45;;;;;;;28.60;23.42;99999.34;5071470;28;20043;-28
2022/07/11 10:26:04;;;;;;;3.28;0.90;;;;;;;28.33;23.88;99984.34;5071942;28;20021;-30
2022/07/11 10:28:44;;;;;;;8.07;2.80;;;;;;;28.23;25.23;100012.19;5090149;28;20032;-28
2022/07/11 10:31:22;;;;;;;1.90;0.98;;;;;;;28.67;23.55;99998.81;5071532;28;20067;-30
2022/07/11 10:34:06;;;;;;;2.00;0.80;;;;;;;28.51;22.94;99984.16;5090425;28;20028;-28
2022/07/11 10:36:34;;;;;;;10.63;2.88;;;;;;;28.51;23.05;99979.47;5071689;28;20639;-29
2022/07/11 10:39:14;;;;;;;5.57;1.30;;;;;;;28.52;22.96;99981.06;5071597;28;20024;-28
2022/07/11 10:41:40;;;;;;;13.35;5.18;;;;;;;28.96;23.18;99989.53;5089512;28;20052;-28
2022/07/11 10:44:06;;;;;;;10.60;4.53;;;;;;;28.55;24.00;99979.59;5089629;28;20028;-28
2022/07/11 10:46:32;;;;;;;6.35;2.67;;;;;;;28.49;24.46;99995.44;5089889;28;20828;-33
2022/07/11 10:49:00;;;;;;;7.18;2.20;;;;;;;28.48;22.83;99996.56;5089734;28;20123;-30
2022/07/11 10:51:47;;;;;;;4.45;1.00;;;;;;;28.68;23.16;99972.97;5089109;28;20495;-28
2022/07/11 10:54:19;;;;;;;3.30;1.23;;;;;;;28.48;21.65;99995.78;5070977;28;20081;-30
2022/07/11 10:57:19;;;;;;;5.78;1.92;;;;;;;28.74;21.82;99992.75;5089395;28;20032;-28
2022/07/11 11:00:05;;;;;;;7.63;2.50;;;;;;;28.93;23.51;99997.66;5089340;28;20499;-33
2022/07/11 11:02:31;;;;;;;5.82;2.35;;;;;;;28.63;22.13;99986.91;5070872;28;20036;-28
2022/07/11 11:04:59;;;;;;;3.08;1.13;;;;;;;28.74;21.92;99981.78;5070891;28;20035;-29
2022/07/11 11:07:35;;;;;;;7.05;2.40;;;;;;;29.04;22.36;99987.81;5089251;28;20055;-29
2022/07/11 11:10:24;;;;;;;3.55;0.90;;;;;;;28.91;21.47;100002.69;5070924;28;20028;-28
2022/07/11 11:13:04;;;;;;;5.57;1.60;;;;;;;29.32;22.61;99996.16;5088296;28;20115;-30
2022/07/11 11:15:44;;;;;;;6.53;2.42;;;;;;;29.14;21.93;99994.81;5088818;28;20042;-30
2022/07/11 11:18:25;;;;;;;2.00;0.80;;;;;;;29.19;21.46;99995.34;5070725;28;20097;-29
2022/07/11 11:21:02;;;;;;;4.30;1.65;;;;;;;29.41;19.77;99998.75;5070317;28;20606;-28
2022/07/11 11:23:30;;;;;;;3.20;1.58;;;;;;;29.64;20.32;100005.31;5070219;28;20036;-30
2022/07/11 11:26:05;;;;;;;1.73;0.70;;;;;;;29.61;20.28;99996.97;5070856;28;20024;-37
2022/07/11 11:28:31;;;;;;;2.55;1.08;;;;;;;29.63;20.45;99995.47;5089178;28;20035;-28
2022/07/11 11:30:58;;;;;;;4.40;1.27;;;;;;;29.72;20.51;99986.31;5088961;28;20024;-31
2022/07/11 11:33:31;;;;;;;;;;;;;;;29.36;20.05;99991.56;5089213;28;20107;-28
2022/07/11 11:36:07;;;;;;;2.30;0.98;;;;;;;29.60;20.69;99996.16;5070209;28;20375;-30
2022/07/11 11:38:37;;;;;;;5.00;2.20;;;;;;;29.32;21.46;99967.88;5070478;28;20031;-33
2022/07/11 11:41:05;;;;;;;5.95;2.15;;;;;;;29.16;21.21;99976.03;5066811;28;20135;-28